SGEN/ENO METAR and TAF weather

Enter ICAO airport designator
Station Type Date Time Source
SGEN METAR 2021/07/29 18:00 UTC NOAA

SGEN 291800Z 15003KT CAVOK 12/01 Q1028


Station Type Date Time Source
SGEN Decoded METAR 2021/07/29 18:00 UTC NOAA

Encarnacion, Paraguay (SGEN) 27-19S 055-50W 91M
Jul 29, 2021 - 02:00 PM EDT / 2021.07.29 1800 UTC
Wind: from the SSE (150 degrees) at 3 MPH (3 KT):0
Visibility: greater than 7 mile(s):0
Temperature: 53 F (12 C)
Dew Point: 33 F (1 C)
Relative Humidity: 46%
Pressure (altimeter): 30.36 in. Hg (1028 hPa)
ob: SGEN 291800Z 15003KT CAVOK 12/01 Q1028
cycle: 18

Station Type Date Time Source
SGEN TAF 2021/07/29 18:00 UTC NOAA

TAF SGEN 291631Z 2918/3018 10003KT CAVOK TX13/2919Z TN02/3010Z

Example: see airport list